Time;durP1;ratioP1;P1;durP2;ratioP2;P2;SDS_P1;SDS_P2;PMS_P1;PMS_P2;Temp;Humidity;BMP_temperature;BMP_pressure;BME280_temperature;BME280_humidity;BME280_pressure;Samples;Min_cycle;Max_cycle;Signal;HPM_P1;HPM_P2
2023/09/08 00:00:09;;;;;;;141.70;9.60;;;;;;;23.69;59.13;100038.16;7294859;19;129371;-40
2023/09/08 00:02:34;;;;;;;77.60;6.73;;;;;;;23.68;58.90;100039.13;7298888;19;129526;-40
2023/09/08 00:05:00;;;;;;;115.60;8.97;;;;;;;23.71;59.27;100036.22;7297094;19;129459;-40
2023/09/08 00:07:25;;;;;;;102.23;8.30;;;;;;;23.70;58.93;100039.78;7298480;19;130946;-40
2023/09/08 00:09:50;;;;;;;147.53;10.17;;;;;;;23.71;59.09;100046.72;7295789;19;131910;-35
2023/09/08 00:12:16;;;;;;;100.47;7.47;;;;;;;23.71;59.29;100038.84;7295410;19;129269;-40
2023/09/08 00:14:42;;;;;;;110.90;8.63;;;;;;;23.71;59.21;100043.25;7299242;19;131053;-37
2023/09/08 00:17:07;;;;;;;116.67;8.87;;;;;;;23.72;59.05;100035.22;7297516;19;130348;-39
2023/09/08 00:19:32;;;;;;;113.83;8.43;;;;;;;23.71;59.10;100038.84;7293530;19;129651;-37
2023/09/08 00:21:58;;;;;;;109.30;8.40;;;;;;;23.71;58.92;100033.59;7298985;19;130056;-39
2023/09/08 00:24:24;;;;;;;93.63;7.33;;;;;;;23.72;58.66;100043.09;7295684;19;129593;-40
2023/09/08 00:26:49;;;;;;;75.27;5.93;;;;;;;23.73;58.82;100036.06;7297870;19;129519;-40
2023/09/08 00:29:14;;;;;;;112.07;8.57;;;;;;;23.72;59.25;100039.66;7296523;19;129985;-38
2023/09/08 00:31:40;;;;;;;93.23;7.57;;;;;;;23.71;59.14;100038.84;7297898;19;129691;-36
2023/09/08 00:34:06;;;;;;;109.97;8.37;;;;;;;23.71;59.00;100038.84;7296008;19;129066;-38
2023/09/08 00:36:32;;;;;;;75.88;6.10;;;;;;;23.72;58.94;100029.16;7295435;19;130165;-42
2023/09/08 00:38:57;;;;;;;65.17;6.10;;;;;;;23.74;59.01;100029.84;7293439;19;130947;-40
2023/09/08 00:41:23;;;;;;;86.57;7.33;;;;;;;23.72;58.91;100024.72;7298413;19;133994;-39
2023/09/08 00:43:49;;;;;;;84.47;6.97;;;;;;;23.73;58.98;100026.41;7296988;19;131304;-40
2023/09/08 00:46:16;;;;;;;130.63;9.57;;;;;;;23.71;58.39;100033.59;7295452;19;129556;-40
2023/09/08 00:48:41;;;;;;;99.53;7.95;;;;;;;23.74;59.00;100033.28;7298094;19;131684;-36
2023/09/08 00:51:09;;;;;;;102.37;8.10;;;;;;;23.75;59.39;100032.31;7295796;19;129389;-35
2023/09/08 00:53:35;;;;;;;100.80;7.95;;;;;;;23.73;59.35;100047.41;7294071;19;131021;-39
2023/09/08 00:56:00;;;;;;;92.67;7.17;;;;;;;23.73;59.15;100038.69;7295415;19;130472;-36
2023/09/08 00:58:26;;;;;;;102.90;7.93;;;;;;;23.71;58.61;100040.63;7294698;19;130121;-39
2023/09/08 01:00:52;;;;;;;78.47;6.53;;;;;;;23.73;58.71;100047.41;7298138;19;129665;-40
2023/09/08 01:03:17;;;;;;;92.27;7.57;;;;;;;23.71;59.39;100038.84;7298008;19;131147;-38
2023/09/08 01:05:43;;;;;;;127.70;9.33;;;;;;;23.71;59.25;100033.59;7294830;19;129776;-35
2023/09/08 01:08:09;;;;;;;86.15;6.88;;;;;;;23.63;60.04;100027.38;7294829;19;129431;-40
2023/09/08 01:10:36;;;;;;;96.27;7.93;;;;;;;23.71;59.55;100038.00;7292896;19;129081;-40
2023/09/08 01:13:02;;;;;;;101.85;8.38;;;;;;;23.72;58.80;100035.22;7293233;19;129256;-38
2023/09/08 01:15:28;;;;;;;95.20;7.13;;;;;;;23.71;59.05;100038.84;7298058;19;131235;-39
2023/09/08 01:17:54;;;;;;;116.53;8.98;;;;;;;23.71;59.44;100038.00;7296874;19;130969;-40
2023/09/08 01:20:25;;;;;;;135.53;9.57;;;;;;;23.70;60.28;100037.16;7290288;19;130053;-41
2023/09/08 01:23:09;;;;;;;115.80;8.68;;;;;;;23.71;60.62;100030.97;7295739;19;130375;-41
2023/09/08 01:25:42;;;;;;;123.20;8.68;;;;;;;23.71;59.88;100022.25;7295931;19;130743;-41
2023/09/08 01:28:10;;;;;;;127.78;8.77;;;;;;;23.71;59.06;100030.13;7295656;19;130493;-40
2023/09/08 01:30:36;;;;;;;105.95;7.80;;;;;;;23.72;59.90;100035.22;7294947;19;129339;-36
2023/09/08 01:33:02;;;;;;;;;;;;;;;23.75;60.46;100024.44;7292406;19;129982;-40
2023/09/08 01:35:28;;;;;;;99.60;8.05;;;;;;;23.74;58.98;100033.28;7294010;19;131883;-41
2023/09/08 01:37:53;;;;;;;155.97;10.87;;;;;;;23.73;59.16;100031.66;7294875;19;129774;-39
2023/09/08 01:40:18;;;;;;;56.03;5.30;;;;;;;23.72;59.71;100032.59;7292229;19;130029;-39
2023/09/08 01:42:44;;;;;;;114.60;8.57;;;;;;;23.72;58.99;100029.97;7294303;19;130121;-40
2023/09/08 01:45:10;;;;;;;143.95;10.55;;;;;;;23.63;59.19;100009.84;7292553;19;129929;-41
2023/09/08 01:47:36;;;;;;;141.80;10.17;;;;;;;23.73;59.92;100026.41;7295833;19;132202;-37
2023/09/08 01:50:01;;;;;;;98.70;8.00;;;;;;;23.74;59.27;100033.28;7292634;19;130735;-37
2023/09/08 01:52:27;;;;;;;102.07;7.80;;;;;;;23.61;58.81;100010.94;7294462;19;129067;-40
2023/09/08 01:54:52;;;;;;;96.63;7.50;;;;;;;23.72;58.61;100024.72;7292952;19;130845;-40
2023/09/08 01:57:18;;;;;;;130.67;9.67;;;;;;;23.72;59.17;100022.09;7293529;19;129714;-39
2023/09/08 01:59:47;;;;;;;97.53;7.53;;;;;;;23.72;58.96;100019.47;7293627;19;129708;-40
2023/09/08 02:02:13;;;;;;;120.47;9.18;;;;;;;23.74;58.77;100022.78;7293136;19;129131;-37
2023/09/08 02:04:39;;;;;;;124.57;9.13;;;;;;;23.76;59.92;100014.78;7295293;19;130300;-39
2023/09/08 02:07:04;;;;;;;105.30;7.93;;;;;;;23.75;59.14;100019.19;7294798;19;131643;-38
2023/09/08 02:09:32;;;;;;;91.50;7.87;;;;;;;23.76;59.12;100014.78;7292968;19;131176;-37
2023/09/08 02:11:57;;;;;;;92.35;7.30;;;;;;;23.75;58.75;100018.38;7293468;19;130010;-36
2023/09/08 02:14:23;;;;;;;119.00;8.80;;;;;;;23.74;59.33;100012.28;7294608;19;130506;-39
2023/09/08 02:16:48;;;;;;;124.70;8.67;;;;;;;23.76;58.90;100014.78;7291393;19;130813;-38
2023/09/08 02:19:13;;;;;;;84.73;7.13;;;;;;;23.75;58.38;100016.56;7290954;19;129188;-41
2023/09/08 02:21:39;;;;;;;69.00;5.97;;;;;;;23.77;59.02;100016.41;7291354;19;129941;-40
2023/09/08 02:24:04;;;;;;;124.07;9.17;;;;;;;23.74;58.90;100017.53;7293983;19;129897;-39
2023/09/08 02:26:33;;;;;;;182.83;12.63;;;;;;;23.65;59.38;100000.00;7292865;19;130904;-35
2023/09/08 02:28:58;;;;;;;81.32;6.88;;;;;;;23.75;59.63;100019.19;7290157;19;130587;-39
2023/09/08 02:31:23;;;;;;;100.20;8.17;;;;;;;23.65;58.74;100007.88;7279095;19;129622;-38
2023/09/08 02:33:49;;;;;;;148.37;10.23;;;;;;;23.77;58.76;100024.28;7284398;19;129634;-38
2023/09/08 02:36:14;;;;;;;121.77;9.10;;;;;;;23.77;58.48;100019.88;7290463;19;129562;-41
2023/09/08 02:38:39;;;;;;;113.03;8.30;;;;;;;23.77;59.11;100019.03;7291369;19;129320;-41
2023/09/08 02:41:05;;;;;;;128.40;9.60;;;;;;;23.77;58.59;100022.50;7292556;19;131886;-39
2023/09/08 02:43:30;;;;;;;127.97;9.07;;;;;;;23.76;59.00;100015.59;7290978;19;132805;-39
2023/09/08 02:45:55;;;;;;;107.53;8.20;;;;;;;23.66;59.68;100001.69;7287215;19;130372;-40
2023/09/08 02:48:21;;;;;;;79.00;6.50;;;;;;;23.77;58.24;100022.50;7289175;19;129831;-37
2023/09/08 02:50:46;;;;;;;116.23;8.67;;;;;;;23.77;58.54;100016.41;7292004;19;129606;-41
2023/09/08 02:53:12;;;;;;;139.43;9.83;;;;;;;23.75;58.64;100011.31;7289872;19;129800;-41
2023/09/08 02:55:37;;;;;;;89.30;7.17;;;;;;;23.69;58.64;100004.03;7292432;19;129686;-41
2023/09/08 02:58:02;;;;;;;57.33;5.13;;;;;;;23.77;58.28;100009.38;7291961;19;129412;-35
2023/09/08 03:00:29;;;;;;;79.80;6.73;;;;;;;23.76;58.92;100005.09;7288722;19;129236;-40
2023/09/08 03:02:54;;;;;;;119.15;8.45;;;;;;;23.77;58.34;100009.38;7289387;19;130986;-41
2023/09/08 03:05:19;;;;;;;104.37;8.07;;;;;;;23.79;58.27;99999.56;7295142;19;130942;-40
2023/09/08 03:07:48;;;;;;;119.10;9.50;;;;;;;23.78;59.28;99997.09;7291835;19;129263;-39
2023/09/08 03:10:13;;;;;;;132.10;9.52;;;;;;;23.66;58.14;99978.06;7289085;19;129920;-40
2023/09/08 03:12:39;;;;;;;109.93;7.53;;;;;;;23.75;58.48;99992.94;7292011;19;129627;-40
2023/09/08 03:15:05;;;;;;;113.27;8.60;;;;;;;23.78;59.05;99990.03;7292540;19;131780;-39
2023/09/08 03:17:30;;;;;;;106.55;8.38;;;;;;;23.70;59.11;99974.16;7292433;19;131608;-38
2023/09/08 03:19:56;;;;;;;119.63;8.67;;;;;;;23.77;59.03;99987.53;7291434;19;131961;-41
2023/09/08 03:22:21;;;;;;;148.17;10.60;;;;;;;23.77;58.33;99980.50;7292153;19;130255;-39
2023/09/08 03:24:47;;;;;;;67.00;5.73;;;;;;;23.77;58.32;99985.75;7290155;19;129975;-37
2023/09/08 03:27:12;;;;;;;119.57;9.07;;;;;;;23.68;58.13;99964.78;7290045;19;129194;-38
2023/09/08 03:29:37;;;;;;;130.93;9.70;;;;;;;23.76;58.44;99983.25;7291641;19;132857;-41
2023/09/08 03:32:03;;;;;;;96.90;7.43;;;;;;;23.77;58.38;99977.03;7292357;19;131848;-40
2023/09/08 03:34:29;;;;;;;87.97;7.37;;;;;;;23.74;58.10;99980.78;7293520;19;131797;-41
2023/09/08 03:36:54;;;;;;;87.57;6.83;;;;;;;23.70;58.72;99973.34;7290244;19;130460;-40
2023/09/08 03:39:19;;;;;;;144.70;10.57;;;;;;;23.75;58.60;99986.88;7290195;19;129448;-38
2023/09/08 03:41:45;;;;;;;73.33;6.30;;;;;;;23.76;58.75;99991.97;7291785;19;130107;-39
2023/09/08 03:44:10;;;;;;;97.17;7.83;;;;;;;23.76;58.95;99984.09;7290853;19;129549;-38
2023/09/08 03:46:36;;;;;;;126.33;9.13;;;;;;;23.69;58.41;99971.69;7290560;19;130138;-39
2023/09/08 03:49:01;;;;;;;87.17;6.33;;;;;;;23.77;58.40;99977.88;7289564;19;129089;-39
2023/09/08 03:51:27;;;;;;;89.70;7.13;;;;;;;23.77;58.58;99975.25;7292513;19;130595;-42
2023/09/08 03:53:53;;;;;;;133.67;9.93;;;;;;;23.78;58.97;99987.41;7285674;19;130087;-40
2023/09/08 03:56:20;;;;;;;123.82;9.95;;;;;;;23.77;58.47;99985.75;7289068;19;129485;-38
2023/09/08 03:58:45;;;;;;;85.55;6.40;;;;;;;23.76;58.76;99984.09;7290475;19;129691;-39
2023/09/08 04:01:11;;;;;;;116.70;9.13;;;;;;;23.79;58.94;99978.56;7290308;19;129119;-41
2023/09/08 04:03:36;;;;;;;73.73;6.27;;;;;;;23.80;58.30;99974.94;7288565;19;129383;-38
2023/09/08 04:06:02;;;;;;;101.33;7.43;;;;;;;23.79;58.92;99978.56;7287196;19;129780;-40
2023/09/08 04:08:27;;;;;;;102.97;8.00;;;;;;;23.80;57.80;99982.81;7288011;19;129060;-41
2023/09/08 04:10:52;;;;;;;87.67;7.67;;;;;;;23.78;58.71;99984.78;7288755;19;133752;-40
2023/09/08 04:13:18;;;;;;;151.60;10.50;;;;;;;23.78;58.81;99976.09;7288608;19;130084;-41
2023/09/08 04:15:43;;;;;;;121.60;8.90;;;;;;;23.76;59.36;99981.47;7296784;19;129063;-40
2023/09/08 04:18:09;;;;;;;108.27;8.33;;;;;;;23.76;58.55;99984.09;7296440;19;129617;-37
2023/09/08 04:20:34;;;;;;;107.83;8.93;;;;;;;23.78;58.36;99986.59;7292398;19;131590;-38
2023/09/08 04:22:59;;;;;;;100.37;8.20;;;;;;;23.75;57.49;99981.63;7296941;19;129862;-38
2023/09/08 04:25:25;;;;;;;151.67;11.17;;;;;;;23.73;58.27;99979.16;7297076;19;129813;-41
2023/09/08 04:27:50;;;;;;;112.10;9.17;;;;;;;23.65;57.70;99970.34;7294641;19;131267;-38
2023/09/08 04:30:17;;;;;;;92.03;8.13;;;;;;;23.73;57.33;99984.41;7294059;19;129502;-39
2023/09/08 04:32:43;;;;;;;113.28;9.70;;;;;;;23.72;57.22;99987.97;7293490;19;130533;-41
2023/09/08 04:35:09;;;;;;;131.63;10.65;;;;;;;23.71;57.25;99981.09;7295911;19;129210;-37
2023/09/08 04:37:34;;;;;;;97.63;8.80;;;;;;;23.73;57.68;99991.44;7295902;19;129950;-41
2023/09/08 04:40:00;;;;;;;116.60;9.93;;;;;;;23.73;57.46;100000.16;7291442;19;130874;-40
2023/09/08 04:42:25;;;;;;;128.50;11.10;;;;;;;23.72;57.72;99985.34;7290595;19;130261;-39
2023/09/08 04:44:51;;;;;;;174.63;12.63;;;;;;;23.71;57.41;99986.34;7292369;19;129424;-37
2023/09/08 04:47:16;;;;;;;146.70;11.47;;;;;;;23.72;57.79;99998.47;7292399;19;129984;-40
2023/09/08 04:49:41;;;;;;;95.87;9.03;;;;;;;23.71;57.06;99994.22;7290074;19;129558;-39
2023/09/08 04:52:07;;;;;;;84.50;7.77;;;;;;;23.69;56.82;99992.69;7291096;19;129634;-40
2023/09/08 04:54:32;;;;;;;170.13;12.63;;;;;;;23.67;56.84;99984.16;7294523;19;129102;-35
2023/09/08 04:56:58;;;;;;;88.37;8.53;;;;;;;23.66;56.90;99988.56;7292466;19;129863;-39
2023/09/08 04:59:23;;;;;;;121.10;11.37;;;;;;;23.66;56.39;99988.56;7289449;19;130049;-36
2023/09/08 05:01:50;;;;;;;112.17;9.83;;;;;;;23.69;56.93;99988.28;7294177;19;129373;-40
2023/09/08 05:04:16;;;;;;;151.00;11.70;;;;;;;23.59;57.43;99971.72;7287958;19;130549;-38
2023/09/08 05:06:42;;;;;;;154.13;12.05;;;;;;;23.68;56.53;99986.63;7291493;19;129453;-40
2023/09/08 05:09:07;;;;;;;102.43;8.97;;;;;;;23.71;56.57;99988.97;7291136;19;129546;-39
2023/09/08 05:11:33;;;;;;;126.90;10.27;;;;;;;23.67;56.42;99984.94;7288988;19;131671;-39
2023/09/08 05:13:58;;;;;;;107.93;9.87;;;;;;;23.67;57.19;99984.94;7293979;19;129624;-37
2023/09/08 05:16:36;;;;;;;209.93;15.70;;;;;;;23.68;57.01;99993.66;7290535;19;130042;-38
2023/09/08 05:19:05;;;;;;;129.75;10.88;;;;;;;23.67;57.74;99990.19;7290196;19;130406;-40
2023/09/08 05:21:31;;;;;;;158.82;12.30;;;;;;;23.67;56.43;99984.94;7291526;19;129703;-37
2023/09/08 05:23:57;;;;;;;127.25;9.98;;;;;;;23.68;56.17;99991.88;7291786;19;130102;-39
2023/09/08 05:26:22;;;;;;;96.33;8.97;;;;;;;23.69;55.95;99998.78;7293506;19;129019;-41
2023/09/08 05:28:48;;;;;;;151.27;12.20;;;;;;;23.67;56.87;99995.44;7285763;19;130736;-35
2023/09/08 05:31:13;;;;;;;120.07;10.37;;;;;;;23.67;56.41;99995.44;7291721;19;129567;-39
2023/09/08 05:33:38;;;;;;;102.93;9.30;;;;;;;23.66;56.62;99992.97;7292635;19;129252;-40
2023/09/08 05:36:04;;;;;;;28.73;4.73;;;;;;;23.62;56.84;99995.06;7294502;19;129386;-40
2023/09/08 05:38:29;;;;;;;94.47;8.43;;;;;;;23.52;57.38;99981.13;7295303;19;130239;-39
2023/09/08 05:40:55;;;;;;;172.10;13.70;;;;;;;23.61;57.53;99996.03;7291768;19;131342;-38
2023/09/08 05:43:21;;;;;;;118.33;10.33;;;;;;;23.65;57.04;100002.63;7293729;19;130479;-38
2023/09/08 05:45:46;;;;;;;90.43;8.07;;;;;;;23.63;56.65;100004.59;7291698;19;129342;-39
2023/09/08 05:48:11;;;;;;;92.20;8.70;;;;;;;23.63;56.42;99999.34;7293610;19;130825;-41
2023/09/08 05:50:37;;;;;;;197.47;14.07;;;;;;;23.62;56.65;100000.31;7292027;19;131156;-40
2023/09/08 05:53:02;;;;;;;119.57;10.37;;;;;;;23.63;56.58;100004.59;7292008;19;129500;-40
2023/09/08 05:55:27;;;;;;;105.50;9.43;;;;;;;23.62;56.69;100008.19;7293427;19;129790;-39
2023/09/08 05:57:53;;;;;;;65.17;6.83;;;;;;;23.61;57.53;100005.69;7291999;19;130249;-39
2023/09/08 06:00:19;;;;;;;132.53;11.10;;;;;;;23.62;56.79;100002.94;7291603;19;130327;-40
2023/09/08 06:02:45;;;;;;;110.43;9.63;;;;;;;23.61;56.88;100000.44;7292656;19;131827;-37
2023/09/08 06:05:10;;;;;;;103.57;9.53;;;;;;;23.61;57.03;100001.28;7292118;19;129610;-40
2023/09/08 06:07:35;;;;;;;96.47;8.80;;;;;;;23.61;56.79;99997.81;7291503;19;129425;-39
2023/09/08 06:10:01;;;;;;;154.30;12.03;;;;;;;23.54;56.35;99984.44;7291783;19;129588;-36
2023/09/08 06:12:26;;;;;;;123.00;10.57;;;;;;;23.59;57.08;99992.72;7294477;19;131190;-38
2023/09/08 06:14:51;;;;;;;94.97;9.20;;;;;;;23.59;56.52;99984.00;7293501;19;134069;-40
2023/09/08 06:17:17;;;;;;;122.30;10.70;;;;;;;23.61;57.07;99993.41;7291142;19;130137;-39
2023/09/08 06:19:42;;;;;;;106.43;9.73;;;;;;;23.58;57.34;99988.44;7292955;19;129504;-40
2023/09/08 06:22:07;;;;;;;72.03;7.53;;;;;;;23.61;57.07;99990.78;7289230;19;130095;-40
2023/09/08 06:24:33;;;;;;;107.88;9.43;;;;;;;23.61;56.64;99988.16;7293012;19;129750;-41
2023/09/08 06:26:58;;;;;;;130.10;10.83;;;;;;;23.62;56.48;99991.63;7290792;19;129720;-39
2023/09/08 06:29:23;;;;;;;114.47;10.20;;;;;;;23.61;57.16;99990.78;7290514;19;129531;-37
2023/09/08 06:31:49;;;;;;;100.00;8.93;;;;;;;23.62;56.47;99987.19;7292582;19;130398;-40
2023/09/08 06:34:14;;;;;;;103.70;9.30;;;;;;;23.61;56.30;99987.31;7291398;19;131135;-41
2023/09/08 06:36:39;;;;;;;131.30;10.23;;;;;;;23.61;56.72;99988.16;7288322;19;129231;-39
2023/09/08 06:39:04;;;;;;;65.17;7.40;;;;;;;23.62;57.49;99991.63;7292530;19;130294;-41
2023/09/08 06:41:30;;;;;;;141.57;11.60;;;;;;;23.60;56.72;99983.84;7292371;19;129545;-39
2023/09/08 06:43:55;;;;;;;79.83;8.60;;;;;;;23.61;56.67;99992.56;7292874;19;129949;-38
2023/09/08 06:46:20;;;;;;;150.57;11.90;;;;;;;23.60;57.33;100001.44;7291722;19;133360;-39
2023/09/08 06:48:46;;;;;;;80.77;7.90;;;;;;;23.61;57.00;99998.66;7291939;19;130885;-38
2023/09/08 06:51:11;;;;;;;69.28;7.22;;;;;;;23.62;56.45;99996.88;7293126;19;129944;-41
2023/09/08 06:53:36;;;;;;;87.60;7.77;;;;;;;23.61;57.48;99996.03;7291064;19;130787;-41
2023/09/08 06:56:02;;;;;;;127.83;10.23;;;;;;;23.61;56.81;99996.03;7293101;19;130237;-39
2023/09/08 06:58:27;;;;;;;111.90;10.13;;;;;;;23.61;57.13;99996.03;7292685;19;132877;-37
2023/09/08 07:00:54;;;;;;;106.87;9.63;;;;;;;23.62;57.11;100002.94;7291365;19;130294;-40
2023/09/08 07:03:22;;;;;;;145.70;11.50;;;;;;;23.60;57.27;99994.34;7291918;19;129235;-39
2023/09/08 07:05:47;;;;;;;106.38;9.00;;;;;;;23.60;57.24;99996.19;7292617;19;129942;-40
2023/09/08 07:08:13;;;;;;;106.20;9.47;;;;;;;23.61;56.70;100001.28;7292095;19;129085;-36
2023/09/08 07:10:38;;;;;;;126.20;10.20;;;;;;;23.62;57.25;99997.69;7289526;19;129408;-40
2023/09/08 07:13:03;;;;;;;101.70;9.00;;;;;;;23.54;57.30;99973.09;7293157;19;131725;-40
2023/09/08 07:15:29;;;;;;;129.17;10.83;;;;;;;23.55;56.94;99975.59;7288532;19;132129;-39
2023/09/08 07:17:55;;;;;;;92.20;8.87;;;;;;;23.53;57.60;99977.56;7291077;19;129304;-40
2023/09/08 07:20:20;;;;;;;105.80;9.40;;;;;;;23.62;56.83;99997.69;7290675;19;129413;-42
2023/09/08 07:22:47;;;;;;;111.50;9.23;;;;;;;23.64;57.35;99990.50;7288142;19;130449;-36
2023/09/08 07:25:12;;;;;;;92.72;8.38;;;;;;;23.64;57.21;99993.13;7290096;19;129957;-35
2023/09/08 07:27:38;;;;;;;131.57;11.13;;;;;;;23.53;57.52;99981.97;7290187;19;129976;-38
2023/09/08 07:30:05;;;;;;;100.27;9.10;;;;;;;23.63;56.75;99995.88;7290158;19;130092;-41
2023/09/08 07:32:31;;;;;;;129.35;10.48;;;;;;;23.64;57.06;99995.75;7291980;19;129631;-39
2023/09/08 07:34:56;;;;;;;89.40;8.53;;;;;;;23.65;57.35;99997.38;7288785;19;130490;-35
2023/09/08 07:37:22;;;;;;;114.00;9.50;;;;;;;23.67;56.99;99998.06;7291241;19;131034;-40
2023/09/08 07:39:48;;;;;;;81.55;8.00;;;;;;;23.65;57.36;100000.00;7287165;19;129621;-39
2023/09/08 07:42:13;;;;;;;179.07;13.53;;;;;;;23.67;57.31;99994.66;7289411;19;131496;-41
2023/09/08 07:44:39;;;;;;;110.70;9.70;;;;;;;23.66;57.70;99993.81;7289657;19;130170;-37
2023/09/08 07:47:04;;;;;;;34.55;5.13;;;;;;;23.65;58.33;99999.22;7302585;19;129658;-41
2023/09/08 07:49:29;;;;;;;51.33;6.13;;;;;;;23.59;58.51;99981.38;7313545;19;128881;-41
2023/09/08 07:51:55;;;;;;;76.70;7.07;;;;;;;23.68;57.79;99999.75;7315267;19;131026;-40
2023/09/08 07:54:20;;;;;;;34.97;5.17;;;;;;;23.70;57.97;100000.41;7313735;19;129642;-40
2023/09/08 07:56:47;;;;;;;44.77;5.23;;;;;;;23.70;58.47;99999.59;7314199;19;130309;-40
2023/09/08 07:59:12;;;;;;;50.15;5.90;;;;;;;23.74;58.44;100000.94;7313363;19;131767;-39
2023/09/08 08:01:38;;;;;;;81.40;7.33;;;;;;;23.75;57.89;100003.44;7315444;19;130021;-38
2023/09/08 08:04:03;;;;;;;30.73;5.03;;;;;;;23.75;57.71;100005.25;7314774;19;129781;-36
2023/09/08 08:06:29;;;;;;;55.87;6.13;;;;;;;23.78;57.88;99999.72;7315467;19;130204;-38
2023/09/08 08:08:56;;;;;;;79.57;7.47;;;;;;;23.64;58.46;99981.78;7313445;19;129432;-40
2023/09/08 08:11:22;;;;;;;42.63;4.90;;;;;;;23.80;58.35;100001.19;7316349;19;129226;-39
2023/09/08 08:13:47;;;;;;;44.73;5.17;;;;;;;23.78;58.33;99997.91;7312727;19;129657;-39
2023/09/08 08:16:12;;;;;;;36.20;4.97;;;;;;;23.79;58.22;99996.09;7313900;19;129067;-40
2023/09/08 08:18:38;;;;;;;104.53;8.70;;;;;;;23.81;58.47;99991.53;7313057;19;129911;-41
2023/09/08 08:21:03;;;;;;;43.43;5.53;;;;;;;23.80;58.06;100001.19;7313285;19;133719;-39
2023/09/08 08:23:33;;;;;;;56.57;6.00;;;;;;;23.84;58.66;99999.97;7314030;19;129425;-41
2023/09/08 08:25:59;;;;;;;47.17;5.70;;;;;;;23.83;57.84;100000.91;7312783;19;130564;-40
2023/09/08 08:28:24;;;;;;;66.73;6.43;;;;;;;23.70;57.73;99999.59;7312230;19;129531;-40
2023/09/08 08:30:50;;;;;;;50.90;5.50;;;;;;;23.75;58.31;99995.56;7313734;19;129237;-36
2023/09/08 08:33:16;;;;;;;29.55;4.60;;;;;;;23.70;57.53;99987.28;7314628;19;129174;-40
2023/09/08 08:35:41;;;;;;;38.30;5.17;;;;;;;23.75;58.28;99981.63;7313735;19;130351;-39
2023/09/08 08:38:07;;;;;;;87.60;7.67;;;;;;;23.76;57.73;99973.59;7313273;19;130793;-40
2023/09/08 08:40:33;;;;;;;47.97;5.90;;;;;;;23.72;57.19;99979.25;7312504;19;129264;-42
2023/09/08 08:43:00;;;;;;;47.88;6.22;;;;;;;23.79;57.45;99975.94;7312666;19;130714;-39
2023/09/08 08:45:26;;;;;;;35.38;5.07;;;;;;;23.69;57.14;99982.19;7313709;19;130711;-40
2023/09/08 08:47:53;;;;;;;82.65;7.40;;;;;;;23.75;56.85;99979.81;7312568;19;130461;-40
2023/09/08 08:50:20;;;;;;;29.33;4.80;;;;;;;23.73;56.98;99978.31;7312339;19;129547;-41
2023/09/08 08:52:45;;;;;;;;;;;;;;;23.63;56.15;99983.59;7312438;19;130757;-39
2023/09/08 08:55:11;;;;;;;51.08;6.03;;;;;;;23.61;55.93;99959.28;7312936;19;129160;-41
2023/09/08 08:57:38;;;;;;;97.10;8.23;;;;;;;23.73;56.39;99981.78;7313465;19;129055;-37
2023/09/08 09:00:10;;;;;;;37.75;5.03;;;;;;;23.80;57.02;99974.94;7310201;19;129327;-40
2023/09/08 09:02:39;;;;;;;47.22;5.60;;;;;;;23.81;55.88;99970.53;7313632;19;129475;-41
2023/09/08 09:05:05;;;;;;;51.72;5.30;;;;;;;23.68;56.02;99976.13;7311983;19;130341;-40
2023/09/08 09:07:32;;;;;;;73.55;6.82;;;;;;;23.81;55.96;99966.13;7312602;19;128824;-40
2023/09/08 09:09:58;;;;;;;62.63;6.07;;;;;;;23.73;55.61;99946.81;7311350;19;129381;-40
2023/09/08 09:12:24;;;;;;;30.73;4.57;;;;;;;23.77;56.07;99970.00;7313065;19;129435;-40
2023/09/08 09:14:53;;;;;;;26.97;4.70;;;;;;;23.76;55.41;99968.34;7311263;19;129610;-43
2023/09/08 09:17:18;;;;;;;57.17;6.07;;;;;;;23.77;55.41;99964.75;7312406;19;128952;-40
2023/09/08 09:19:44;;;;;;;68.47;6.57;;;;;;;23.78;56.00;99962.94;7312337;19;129156;-39
2023/09/08 09:22:09;;;;;;;36.07;5.50;;;;;;;23.81;55.67;99965.28;7314258;19;129715;-39
2023/09/08 09:24:40;;;;;;;51.00;5.57;;;;;;;23.81;55.54;99955.63;7312816;19;129551;-39
2023/09/08 09:27:06;;;;;;;69.93;6.80;;;;;;;23.81;55.95;99955.63;7311708;19;129147;-39
2023/09/08 09:29:33;;;;;;;71.88;7.00;;;;;;;23.73;55.67;99958.16;7310283;19;129249;-40
2023/09/08 09:32:10;;;;;;;28.42;4.50;;;;;;;23.78;55.66;99958.53;7312523;19;130337;-42
2023/09/08 09:34:35;;;;;;;46.38;4.97;;;;;;;23.76;54.85;99952.59;7309616;19;129670;-40
2023/09/08 09:37:01;;;;;;;22.40;4.03;;;;;;;23.60;54.45;99955.00;7313599;19;128948;-36
2023/09/08 09:39:26;;;;;;;68.53;6.63;;;;;;;23.80;55.01;99953.94;7309874;19;129300;-42
2023/09/08 09:41:56;;;;;;;30.97;4.40;;;;;;;23.75;54.98;99945.69;7313460;19;130251;-40
2023/09/08 09:44:23;;;;;;;47.42;5.38;;;;;;;23.78;54.34;99958.53;7311339;19;130380;-39
2023/09/08 09:46:51;;;;;;;28.38;4.45;;;;;;;23.82;53.92;99948.53;7312450;19;129844;-41
2023/09/08 09:49:17;;;;;;;53.13;5.68;;;;;;;23.73;53.23;99952.06;7309627;19;129919;-38
2023/09/08 09:51:47;;;;;;;73.15;7.30;;;;;;;23.73;53.55;99936.31;7308323;19;129447;-41
2023/09/08 09:54:14;;;;;;;27.52;4.22;;;;;;;23.74;52.38;99944.03;7309682;19;129767;-46
2023/09/08 09:56:40;;;;;;;55.00;6.10;;;;;;;23.83;52.75;99942.34;7311691;19;129541;-36
2023/09/08 09:59:12;;;;;;;66.25;6.15;;;;;;;23.80;52.82;99938.19;7310361;19;129015;-41
2023/09/08 10:01:39;;;;;;;86.30;7.32;;;;;;;23.87;52.48;99936.66;7310824;19;129422;-42
2023/09/08 10:04:05;;;;;;;18.25;4.43;;;;;;;23.81;52.59;99939.84;7310896;19;129644;-37
2023/09/08 10:06:32;;;;;;;45.50;5.47;;;;;;;23.76;51.22;99936.84;7310854;19;129987;-41
2023/09/08 10:09:00;;;;;;;56.45;5.55;;;;;;;23.83;52.11;99948.41;7310324;19;129510;-41
2023/09/08 10:11:28;;;;;;;59.63;5.72;;;;;;;23.85;51.45;99935.16;7311128;19;129174;-43
2023/09/08 10:13:59;;;;;;;32.63;4.47;;;;;;;23.93;51.60;99938.66;7307229;19;129488;-39
2023/09/08 10:16:28;;;;;;;38.28;4.90;;;;;;;23.88;51.05;99930.41;7310791;19;129003;-38
2023/09/08 10:18:54;;;;;;;39.13;4.78;;;;;;;23.83;51.57;99945.78;7309916;19;129214;-40
2023/09/08 10:21:23;;;;;;;64.30;5.88;;;;;;;23.83;50.79;99937.91;7312426;19;130479;-38
2023/09/08 10:24:04;;;;;;;68.93;6.80;;;;;;;23.86;51.56;99936.78;7309743;19;129596;-38
2023/09/08 10:26:31;;;;;;;35.88;4.80;;;;;;;23.93;49.78;99933.41;7311438;19;128885;-42
2023/09/08 10:28:57;;;;;;;25.02;4.13;;;;;;;23.94;48.83;99924.59;7310252;19;129278;-40
2023/09/08 10:31:27;;;;;;;47.40;5.55;;;;;;;23.76;50.78;99921.09;7309174;19;129446;-41
2023/09/08 10:33:56;;;;;;;67.85;6.15;;;;;;;23.93;51.09;99928.16;7309146;19;129549;-41
2023/09/08 10:36:25;;;;;;;30.55;4.38;;;;;;;24.08;51.22;99926.72;7309564;19;130423;-40
2023/09/08 10:38:51;;;;;;;30.15;4.32;;;;;;;24.07;51.18;99919.84;7309699;19;129610;-38
2023/09/08 10:41:17;;;;;;;14.93;3.85;;;;;;;24.05;51.01;99921.78;7310390;19;130317;-41
2023/09/08 10:43:46;;;;;;;127.20;9.97;;;;;;;23.93;51.65;99895.84;7308717;19;129437;-44
2023/09/08 10:46:22;;;;;;;31.95;4.13;;;;;;;24.07;51.85;99914.59;7311008;19;129103;-38
2023/09/08 10:48:48;;;;;;;52.47;5.93;;;;;;;24.03;51.21;99913.22;7309079;19;129543;-39
2023/09/08 10:51:14;;;;;;;65.10;6.57;;;;;;;24.04;51.61;99914.88;7309205;19;129784;-39
2023/09/08 10:53:40;;;;;;;75.80;7.15;;;;;;;24.06;51.08;99920.00;7306218;19;130339;-42
2023/09/08 10:56:06;;;;;;;70.65;5.90;;;;;;;24.01;51.76;99909.94;7310621;19;129233;-41
2023/09/08 10:58:35;;;;;;;57.33;6.00;;;;;;;24.06;51.39;99912.13;7305061;19;129637;-37
2023/09/08 11:01:01;;;;;;;36.97;4.50;;;;;;;24.19;51.77;99904.69;7309848;19;129253;-39
2023/09/08 11:03:49;;;;;;;43.75;5.28;;;;;;;24.15;51.94;99905.94;7307531;19;130424;-41